Latest Weather Observations for Temora

IDN60801

Issued at 11:03 am EST Monday 6 July 2015 (issued every 30 minutes, with the page automatically refreshed every 10 minutes)

About weather observations | Map of weather stations | Latest weather observations for NSW | Other Formats
Station Details ID: 073151 Name: TEMORA AIRPORT Lat: -34.43 Lon: 147.51 Height: 280.5 m
Data from the previous 72 hours. | See also: Recent months at Temora
Date/Time
EST
Temp
°C
App
Temp
°C
Dew
Point
Rel
Hum
%
Delta-T
°C
Wind Press
QNH
hPa
Press
MSL
hPa
Rain
since 9 am
mm
Dir
 
Spd
km/h
Gust
km/h
Spd
kts
Gust
kts
06/11:00am 9.3 7.1 6.0 80 1.5 NNW 7 11 4 6 1019.3 1019.8 0.0
06/10:30am 7.7 5.0 5.5 86 1.0 N 9 11 5 6 1019.5 1020.0 0.0
06/10:00am 6.7 4.2 5.0 89 0.8 N 7 9 4 5 1019.7 1020.2 0.0
06/09:30am 4.8 3.6 4.7 99 0.0 CALM 0 2 0 1 1019.6 1020.1 0.0
06/09:00am 3.6 1.8 3.5 99 0.0 WNW 2 7 1 4 1019.4 1019.9 0.0
06/08:30am 2.3 -0.5 2.2 99 0.0 NNE 6 7 3 4 1019.4 1019.9 0.0
06/08:00am 0.8 -2.2 0.7 99 0.0 SSE 6 7 3 4 1019.3 1019.8 0.0
06/07:30am 0.3 -1.7 0.2 99 0.0 CALM 0 6 0 3 1019.2 1019.7 0.0
06/07:00am 0.4 -1.5 0.3 99 0.0 CALM 0 0 0 0 1019.0 1019.5 0.0
06/06:30am -0.3 -2.4 -0.6 98 0.1 CALM 0 0 0 0 1018.8 1019.2 0.0
06/06:00am 0.5 -1.4 0.4 99 0.0 CALM 0 0 0 0 1018.7 1019.1 0.0
06/05:30am 1.5 -0.3 1.4 99 0.0 CALM 0 0 0 0 1018.6 1019.0 0.0
06/05:00am 1.8 -0.3 1.7 99 0.0 WSW 2 9 1 5 1018.8 1019.2 0.0
06/04:30am 2.0 -0.8 1.9 99 0.0 SSE 6 9 3 5 1018.8 1019.2 0.0
06/04:00am 0.6 -2.4 0.5 99 0.0 SSW 6 7 3 4 1018.9 1019.3 0.0
06/03:30am 0.1 -3.0 0.0 99 0.0 WSW 6 11 3 6 1019.0 1019.5 0.0
06/03:00am 0.1 -3.0 0.0 99 0.0 ESE 6 7 3 4 1019.1 1019.6 0.0
06/02:30am 0.2 -2.9 -0.1 98 0.1 N 6 9 3 5 1019.4 1019.9 0.0
06/02:00am 0.9 -1.0 0.5 97 0.1 CALM 0 0 0 0 1019.5 1020.0 0.0
06/01:30am 2.1 0.3 1.5 96 0.2 CALM 0 6 0 3 1019.5 1020.0 0.0
06/01:00am 2.4 0.6 1.5 94 0.4 CALM 0 0 0 0 1019.9 1020.4 0.0
06/12:30am 3.4 0.7 2.8 96 0.2 NW 6 6 3 3 1020.1 1020.6 0.0
06/12:00am 3.5 1.6 2.9 96 0.2 W 2 13 1 7 1020.3 1020.8 0.0
 
Date/Time
EST
Temp
°C
App
Temp
°C
Dew
Point
Rel
Hum
%
Delta-T
°C
Wind Press
QNH
hPa
Press
MSL
hPa
Rain
since 9 am
mm
Dir
 
Spd
km/h
Gust
km/h
Spd
kts
Gust
kts
05/11:30pm 4.1 2.7 3.7 97 0.2 CALM 0 0 0 0 1020.4 1020.9 0.0
05/11:00pm 4.3 3.0 4.0 98 0.1 CALM 0 0 0 0 1020.6 1021.1 0.0
05/10:30pm 4.3 1.9 4.2 99 0.0 S 6 7 3 4 1020.6 1021.1 0.0
05/10:00pm 3.7 1.2 3.6 99 0.0 SSW 6 7 3 4 1020.7 1021.2 0.0
05/09:30pm 2.4 -0.4 2.1 98 0.1 SSW 6 6 3 3 1020.8 1021.3 0.0
05/09:00pm 1.8 -0.8 1.1 95 0.3 SSW 4 6 2 3 1020.7 1021.2 0.0
05/08:30pm 3.1 0.4 2.4 95 0.3 SSW 6 7 3 4 1020.6 1021.1 0.0
05/08:00pm 4.0 1.1 2.8 92 0.5 SW 7 9 4 5 1020.5 1021.0 0.0
05/07:30pm 5.5 2.7 3.3 86 0.9 SW 7 9 4 5 1020.5 1021.0 0.0
05/07:00pm 7.1 4.8 4.6 84 1.1 SSW 6 7 3 4 1020.5 1021.0 0.0
05/06:30pm 7.7 5.4 5.0 83 1.2 SSW 6 6 3 3 1020.5 1021.0 0.0
05/06:00pm 7.7 5.2 5.0 83 1.2 S 7 11 4 6 1020.4 1020.9 0.0
05/05:30pm 8.8 6.5 4.8 76 1.8 WSW 6 9 3 5 1020.5 1021.0 0.0
05/05:00pm 9.4 6.5 4.4 71 2.2 N 9 9 5 5 1020.1 1020.6 0.0
05/04:30pm 11.7 9.4 4.9 63 3.2 NW 6 9 3 5 1020.3 1020.8 0.0
05/04:00pm 12.2 9.7 4.9 61 3.4 NW 7 9 4 5 1020.3 1020.8 0.0
05/03:30pm 12.3 10.4 4.8 60 3.5 SE 4 9 2 5 1020.2 1020.7 0.0
05/03:00pm 12.2 9.9 4.7 60 3.5 NNW 6 7 3 4 1020.4 1020.9 0.0
05/02:30pm 11.5 9.1 4.3 61 3.3 SSE 6 11 3 6 1020.5 1021.0 0.0
05/02:00pm 11.1 8.6 4.6 64 3.0 S 7 13 4 7 1020.6 1021.1 0.0
05/01:30pm 10.9 8.0 4.6 65 2.9 SE 9 15 5 8 1020.8 1021.3 0.0
05/01:00pm 10.4 7.4 3.9 64 2.9 SSE 9 15 5 8 1021.4 1021.9 0.0
05/12:30pm 9.9 6.9 3.9 66 2.7 SSE 9 15 5 8 1022.0 1022.6 0.0
05/12:00pm 9.9 7.3 4.1 67 2.6 S 7 15 4 8 1022.5 1023.0 0.0
05/11:30am 9.1 6.6 3.9 70 2.3 SSW 6 9 3 5 1023.0 1023.5 0.0
05/11:00am 8.6 6.9 4.0 73 2.0 SE 2 7 1 4 1023.2 1023.7 0.0
05/10:30am 7.7 5.6 3.9 77 1.7 NNW 4 7 2 4 1023.5 1024.0 0.0
05/10:00am 6.3 4.9 3.5 82 1.2 CALM 0 0 0 0 1023.6 1024.1 0.0
05/09:30am 4.2 2.3 2.9 91 0.5 NE 2 7 1 4 1023.7 1024.2 0.0
05/09:00am 1.5 -0.3 1.2 98 0.1 CALM 0 0 0 0 1023.9 1024.4 0.0
05/08:30am -0.6 -2.7 -0.9 98 0.1 CALM 0 0 0 0 1023.7 1024.2 0.0
05/08:00am -2.4 -4.8 -2.8 97 0.0 CALM 0 0 0 0 1023.7 1024.2 0.0
05/07:30am -3.0 -5.4 -3.3 98 0.0 CALM 0 0 0 0 1023.5 1024.0 0.0
05/07:00am -3.2 -5.7 -3.6 97 0.0 CALM 0 0 0 0 1023.7 1024.2 0.0
05/06:30am -3.7 -6.2 -4.2 96 0.0 CALM 0 6 0 3 1023.3 1023.8 0.0
05/06:00am -3.3 -7.1 -3.7 97 0.0 S 7 7 4 4 1023.2 1023.7 0.0
05/05:30am -2.8 -6.9 -3.2 97 0.0 S 9 11 5 6 1022.9 1023.4 0.0
05/05:00am -3.3 -5.8 -3.7 97 0.0 CALM 0 0 0 0 1022.7 1023.2 0.0
05/04:30am -3.0 -5.4 -3.4 97 0.0 CALM 0 0 0 0 1022.5 1023.0 0.0
05/04:00am -2.3 -4.6 -2.7 97 0.0 CALM 0 0 0 0 1022.8 1023.3 0.0
05/03:30am -2.2 -4.5 -2.6 97 0.0 CALM 0 0 0 0 1023.0 1023.5 0.0
05/03:00am -2.0 -4.3 -2.4 97 0.0 CALM 0 0 0 0 1023.1 1023.6 0.0
05/02:30am -1.8 -4.1 -2.2 97 0.1 CALM 0 0 0 0 1023.3 1023.8 0.0
05/02:00am -1.8 -4.1 -2.1 98 0.0 CALM 0 0 0 0 1023.4 1023.9 0.0
05/01:30am -2.0 -4.3 -2.4 97 0.0 CALM 0 0 0 0 1023.5 1024.0 0.0
05/01:00am -1.9 -4.9 -2.2 98 0.0 SW 4 7 2 4 1023.3 1023.8 0.0
05/12:30am -2.0 -6.0 -2.4 97 0.0 S 9 11 5 6 1023.4 1023.9 0.0
05/12:00am -1.5 -5.1 -1.9 97 0.1 SSE 7 9 4 5 1023.9 1024.4 0.0
 
Date/Time
EST
Temp
°C
App
Temp
°C
Dew
Point
Rel
Hum
%
Delta-T
°C
Wind Press
QNH
hPa
Press
MSL
hPa
Rain
since 9 am
mm
Dir
 
Spd
km/h
Gust
km/h
Spd
kts
Gust
kts
04/11:30pm -1.2 -3.8 -1.5 98 0.0 SSW 2 7 1 4 1024.3 1024.8 0.0
04/11:00pm -0.9 -3.1 -1.2 98 0.1 CALM 0 0 0 0 1024.2 1024.7 0.0
04/10:30pm -1.3 -4.7 -1.7 97 0.1 S 6 7 3 4 1024.1 1024.6 0.0
04/10:00pm -0.7 -2.9 -1.3 96 0.2 CALM 0 0 0 0 1024.0 1024.5 0.0
04/09:30pm -0.3 -2.4 -0.9 96 0.2 CALM 0 0 0 0 1024.0 1024.5 0.0
04/09:00pm 0.0 -2.1 -0.6 96 0.2 CALM 0 0 0 0 1024.0 1024.5 0.0
04/08:30pm 0.1 -3.1 -0.6 95 0.3 SSW 6 7 3 4 1024.0 1024.5 0.0
04/08:00pm 0.3 -2.9 -0.5 94 0.3 SSW 6 7 3 4 1024.1 1024.6 0.0
04/07:30pm 1.9 -1.1 1.0 94 0.3 S 6 7 3 4 1024.2 1024.7 0.0
04/07:00pm 3.0 0.1 1.7 91 0.5 S 6 6 3 3 1024.2 1024.7 0.0
04/06:30pm 3.8 0.9 1.5 85 0.9 SSW 6 6 3 3 1024.2 1024.7 0.0
04/06:00pm 4.7 1.8 1.7 81 1.2 SSW 6 7 3 4 1024.2 1024.7 0.0
04/05:30pm 6.3 3.5 1.8 73 1.8 SW 6 7 3 4 1024.0 1024.5 0.0
04/05:00pm 7.7 4.7 2.0 67 2.4 SSW 7 11 4 6 1023.9 1024.4 0.0
04/04:30pm 9.3 6.4 2.6 63 2.9 SW 7 11 4 6 1023.8 1024.3 0.0
04/04:00pm 9.7 6.3 2.1 59 3.2 SW 9 13 5 7 1023.8 1024.3 0.0
04/03:30pm 9.9 6.1 2.0 58 3.4 SW 11 15 6 8 1023.8 1024.3 0.0
04/03:00pm 10.0 6.2 1.9 57 3.4 SW 11 15 6 8 1023.7 1024.2 0.0
04/02:30pm 10.2 5.7 2.1 57 3.5 SSW 15 20 8 11 1023.8 1024.3 0.0
04/02:00pm 10.0 5.1 1.9 57 3.4 S 17 24 9 13 1023.9 1024.4 0.0
04/01:30pm 10.1 6.4 2.5 59 3.3 SSW 11 20 6 11 1024.2 1024.7 0.0
04/01:00pm 9.7 6.0 2.1 59 3.2 SSW 11 19 6 10 1024.2 1024.7 0.0
04/12:30pm 9.6 5.4 1.5 57 3.4 SSW 13 17 7 9 1024.7 1025.2 0.0
04/12:00pm 9.0 5.1 1.4 59 3.2 W 11 15 6 8 1025.0 1025.6 0.0
04/11:30am 9.0 5.6 2.1 62 2.9 WSW 9 15 5 8 1025.4 1026.0 0.0
04/11:00am 8.6 4.9 2.4 65 2.6 W 11 13 6 7 1025.8 1026.4 0.0
04/10:30am 6.9 4.9 4.4 84 1.1 WNW 4 7 2 4 1026.4 1026.9 0.0
04/10:00am 4.8 3.2 2.7 86 0.9 CALM 0 0 0 0 1026.3 1026.8 0.0
04/09:30am 3.8 2.2 2.6 92 0.5 CALM 0 0 0 0 1026.1 1026.6 0.0
04/09:00am 1.6 -0.2 1.5 99 0.0 CALM 0 0 0 0 1025.7 1026.3 0.0
04/08:30am -0.1 -2.1 -0.2 99 0.0 CALM 0 0 0 0 1025.7 1026.3 0.0
04/08:00am -1.7 -4.0 -2.0 98 0.0 CALM 0 0 0 0 1025.4 1026.0 0.0
04/07:30am -2.1 -4.4 -2.4 98 0.0 CALM 0 0 0 0 1025.2 1025.8 0.0
04/07:00am -1.6 -3.8 -1.9 98 0.0 CALM 0 0 0 0 1025.1 1025.7 0.0
04/06:30am -1.6 -3.8 -1.9 98 0.0 CALM 0 0 0 0 1024.9 1025.5 0.0
04/06:00am -1.3 -3.5 -1.7 97 0.1 CALM 0 0 0 0 1024.7 1025.2 0.0
04/05:30am -0.8 -2.9 -1.1 98 0.1 CALM 0 0 0 0 1024.7 1025.2 0.0
04/05:00am -0.7 -2.8 -1.1 97 0.1 CALM 0 2 0 1 1024.6 1025.1 0.0
04/04:30am -0.6 -3.1 -1.0 97 0.1 S 2 6 1 3 1024.5 1025.0 0.0
04/04:00am -0.4 -3.6 -0.8 97 0.1 SSW 6 7 3 4 1024.7 1025.2 0.0
04/03:30am 0.1 -1.9 -0.3 97 0.2 CALM 0 0 0 0 1024.9 1025.5 0.0
04/03:00am 0.0 -2.0 -0.4 97 0.1 CALM 0 0 0 0 1025.1 1025.7 0.0
04/02:30am -0.2 -2.3 -0.8 96 0.2 CALM 0 0 0 0 1025.3 1025.9 0.0
04/02:00am 0.0 -2.1 -0.6 96 0.2 CALM 0 0 0 0 1025.5 1026.1 0.0
04/01:30am 0.4 -1.6 -0.2 96 0.2 CALM 0 0 0 0 1025.6 1026.2 0.0
04/01:00am 0.4 -2.8 -0.2 96 0.2 WSW 6 7 3 4 1025.7 1026.3 0.0
04/12:30am 0.6 -2.1 0.2 97 0.1 S 4 6 2 3 1025.8 1026.4 0.0
04/12:00am 0.2 -3.2 -0.4 96 0.2 S 7 9 4 5 1026.4 1026.9 0.0
 
Date/Time
EST
Temp
°C
App
Temp
°C
Dew
Point
Rel
Hum
%
Delta-T
°C
Wind Press
QNH
hPa
Press
MSL
hPa
Rain
since 9 am
mm
Dir
 
Spd
km/h
Gust
km/h
Spd
kts
Gust
kts
03/11:30pm -0.2 -3.4 -0.8 96 0.2 SSW 6 7 3 4 1026.4 1026.9 0.0
03/11:00pm 0.3 -2.1 -0.1 97 0.1 SW 2 7 1 4 1026.3 1026.8 0.0
03/10:30pm -0.2 -2.3 -0.6 97 0.1 CALM 0 0 0 0 1026.5 1027.0 0.0
03/10:00pm -0.1 -2.2 -0.7 96 0.2 CALM 0 0 0 0 1026.7 1027.2 0.0
03/09:30pm 0.1 -2.0 -0.6 95 0.3 CALM 0 0 0 0 1026.8 1027.3 0.0
03/09:00pm 0.4 -1.6 -0.3 95 0.3 CALM 0 0 0 0 1026.7 1027.2 0.0
03/08:30pm 0.7 -2.5 -0.2 94 0.3 SSW 6 7 3 4 1027.0 1027.5 0.0
03/08:00pm 0.6 -2.6 -0.5 92 0.4 SSW 6 9 3 5 1027.1 1027.6 0.0
03/07:30pm 0.9 -2.5 -0.4 91 0.5 S 7 9 4 5 1026.9 1027.4 0.0
03/07:00pm 1.6 -1.6 -0.3 87 0.7 SSW 6 7 3 4 1027.1 1027.6 0.0
03/06:30pm 2.9 -0.3 0.6 85 0.9 SW 7 9 4 5 1026.9 1027.4 0.0
03/06:00pm 4.2 1.2 0.9 79 1.3 S 6 7 3 4 1026.8 1027.3 0.0
03/05:30pm 5.5 2.3 0.5 70 2.0 SSW 7 9 4 5 1026.8 1027.3 0.0
03/05:00pm 7.6 4.4 1.0 63 2.7 SW 7 11 4 6 1026.6 1027.1 0.0
03/04:30pm 9.0 5.3 2.1 62 2.9 SW 11 17 6 9 1026.4 1026.9 0.0
03/04:00pm 10.0 5.8 1.6 56 3.5 WSW 13 17 7 9 1026.3 1026.8 0.0
03/03:30pm 10.6 6.7 1.4 53 3.9 SW 11 15 6 8 1026.2 1026.7 0.0
03/03:00pm 11.2 7.8 2.0 53 4.0 W 9 17 5 9 1025.9 1026.5 0.0
03/02:30pm 11.0 7.6 2.1 54 3.9 WNW 9 13 5 7 1025.7 1026.3 0.0
03/02:00pm 10.5 7.7 2.1 56 3.6 NNW 6 13 3 7 1025.9 1026.5 0.0
03/01:30pm 10.0 7.1 2.4 59 3.3 NNE 7 11 4 6 1026.3 1026.8 0.0
03/01:00pm 9.2 6.1 1.6 59 3.2 NW 7 17 4 9 1026.7 1027.2 0.0
03/12:30pm 9.0 6.1 1.7 60 3.1 NW 6 11 3 6 1027.2 1027.7 0.0
03/12:00pm 8.9 6.1 2.3 63 2.8 NNE 6 9 3 5 1027.7 1028.2 0.0
03/11:30am 7.1 4.2 1.4 67 2.3 W 6 9 3 5 1028.1 1028.7 0.0

Other Formats:

Comma delimited format used in spreadsheet applications
http://www.bom.gov.au/fwo/IDN60801/IDN60801.95722.axf

JavaScript Object Notation format (JSON) in row-major order
http://www.bom.gov.au/fwo/IDN60801/IDN60801.95722.json